Time;durP1;ratioP1;P1;durP2;ratioP2;P2;SDS_P1;SDS_P2;PMS_P1;PMS_P2;Temp;Humidity;BMP_temperature;BMP_pressure;BME280_temperature;BME280_humidity;BME280_pressure;Samples;Min_cycle;Max_cycle;Signal;HPM_P1;HPM_P2
2023/06/04 00:00:59;;;;;;;7.20;3.75;;;11.20;99.90;;;;;;5013873;28;20575;-70
2023/06/04 00:03:25;;;;;;;6.35;3.00;;;11.20;99.90;;;;;;5046231;28;20430;-73
2023/06/04 00:05:50;;;;;;;5.50;3.05;;;11.10;99.90;;;;;;5045964;28;20658;-73
2023/06/04 00:08:17;;;;;;;5.75;2.97;;;11.10;99.90;;;;;;5032201;28;20403;-73
2023/06/04 00:10:42;;;;;;;5.72;3.42;;;11.10;99.90;;;;;;5043912;28;20484;-73
2023/06/04 00:13:08;;;;;;;7.22;3.70;;;11.10;99.90;;;;;;5049411;28;20036;-73
2023/06/04 00:15:34;;;;;;;5.10;3.42;;;11.00;99.90;;;;;;5064492;28;20048;-74
2023/06/04 00:18:00;;;;;;;5.40;2.95;;;11.00;99.90;;;;;;5032648;28;20059;-74
2023/06/04 00:20:26;;;;;;;5.57;3.35;;;11.00;99.90;;;;;;5031704;28;20134;-73
2023/06/04 00:22:51;;;;;;;6.63;2.88;;;10.90;99.90;;;;;;5029500;28;20052;-74
2023/06/04 00:25:17;;;;;;;5.75;3.70;;;11.00;99.90;;;;;;5059437;28;20109;-73
2023/06/04 00:27:43;;;;;;;5.72;3.15;;;11.00;99.90;;;;;;5047925;28;21937;-73
2023/06/04 00:30:09;;;;;;;5.65;3.35;;;11.00;99.90;;;;;;5041376;28;20044;-74
2023/06/04 00:32:35;;;;;;;8.27;3.35;;;10.90;99.90;;;;;;5047935;28;20089;-73
2023/06/04 00:35:01;;;;;;;6.90;3.80;;;10.90;99.90;;;;;;5029631;28;20056;-73
2023/06/04 00:37:27;;;;;;;4.75;2.97;;;10.90;99.90;;;;;;5031822;28;20036;-70
2023/06/04 00:39:54;;;;;;;7.30;3.83;;;10.90;99.90;;;;;;5032904;28;20049;-70
2023/06/04 00:42:19;;;;;;;6.78;3.72;;;10.90;99.90;;;;;;5041735;28;20068;-70
2023/06/04 00:44:45;;;;;;;8.68;4.03;;;10.90;99.90;;;;;;5059376;28;20089;-70
2023/06/04 00:47:16;;;;;;;9.45;4.43;;;10.80;99.90;;;;;;5059405;28;20381;-70
2023/06/04 00:49:42;;;;;;;9.93;4.50;;;10.80;99.90;;;;;;5045769;28;20105;-70
2023/06/04 00:52:17;;;;;;;7.80;4.70;;;10.80;99.90;;;;;;5014088;28;20050;-70
2023/06/04 00:54:43;;;;;;;9.00;4.15;;;10.70;99.90;;;;;;5057484;28;20043;-71
2023/06/04 00:57:09;;;;;;;8.27;4.45;;;10.70;99.90;;;;;;5043285;28;20036;-71
2023/06/04 00:59:38;;;;;;;8.10;4.50;;;10.70;99.90;;;;;;5055995;28;20099;-70
2023/06/04 01:02:11;;;;;;;9.13;4.55;;;10.70;99.90;;;;;;5058951;28;20045;-70
2023/06/04 01:05:12;;;;;;;8.18;4.50;;;10.60;99.90;;;;;;5063607;28;20768;-69
2023/06/04 01:07:40;;;;;;;8.40;4.25;;;10.60;99.90;;;;;;4983819;28;20058;-70
2023/06/04 01:10:07;;;;;;;11.18;5.18;;;10.60;99.90;;;;;;5016920;28;20177;-71
2023/06/04 01:12:33;;;;;;;7.68;4.70;;;10.60;99.90;;;;;;5049009;28;20131;-71
2023/06/04 01:14:59;;;;;;;8.60;4.78;;;10.50;99.90;;;;;;5045759;28;20518;-71
2023/06/04 01:17:37;;;;;;;8.93;4.75;;;10.40;99.90;;;;;;5050328;28;20036;-71
2023/06/04 01:20:38;;;;;;;6.93;4.80;;;10.50;99.90;;;;;;5051493;28;20044;-70
2023/06/04 01:23:14;;;;;;;8.68;4.90;;;10.50;99.90;;;;;;5060804;28;20056;-71
2023/06/04 01:25:43;;;;;;;6.03;4.63;;;10.50;99.90;;;;;;5056245;28;20070;-70
2023/06/04 01:28:12;;;;;;;8.27;5.10;;;10.40;99.90;;;;;;5064776;28;20719;-71
2023/06/04 01:30:43;;;;;;;7.65;4.78;;;10.40;99.90;;;;;;5057318;28;20052;-71
2023/06/04 01:33:10;;;;;;;9.98;5.30;;;10.40;99.90;;;;;;5061337;28;20095;-71
2023/06/04 01:35:36;;;;;;;8.85;5.35;;;10.30;99.90;;;;;;5043702;28;20124;-71
2023/06/04 01:38:03;;;;;;;7.50;4.60;;;10.30;99.90;;;;;;5035393;28;20052;-70
2023/06/04 01:40:29;;;;;;;7.63;5.00;;;10.30;99.90;;;;;;5043896;28;21327;-71
2023/06/04 01:42:55;;;;;;;9.98;6.30;;;10.30;99.90;;;;;;5049885;28;20047;-71
2023/06/04 01:45:22;;;;;;;12.00;7.03;;;10.20;99.90;;;;;;5045066;28;20040;-70
2023/06/04 01:47:48;;;;;;;10.98;6.03;;;10.20;99.90;;;;;;5053559;28;20144;-71
2023/06/04 01:50:14;;;;;;;8.68;5.78;;;10.20;99.90;;;;;;5063770;28;20146;-71
2023/06/04 01:52:40;;;;;;;11.50;6.57;;;10.30;99.90;;;;;;5029609;28;20048;-70
2023/06/04 01:55:08;;;;;;;10.15;6.25;;;10.20;99.90;;;;;;5067993;28;20028;-71
2023/06/04 01:57:38;;;;;;;10.88;6.32;;;10.20;99.90;;;;;;5031686;28;20177;-70
2023/06/04 02:00:08;;;;;;;9.93;6.40;;;10.20;99.90;;;;;;5048925;28;20083;-70
2023/06/04 02:02:33;;;;;;;13.10;6.10;;;10.20;99.90;;;;;;5069495;28;20123;-71
2023/06/04 02:04:59;;;;;;;9.13;5.97;;;10.20;99.90;;;;;;5057243;28;20113;-70
2023/06/04 02:07:25;;;;;;;9.07;5.97;;;10.30;99.90;;;;;;5029319;28;20456;-70
2023/06/04 02:09:51;;;;;;;10.52;6.15;;;10.30;99.90;;;;;;5016409;28;20053;-70
2023/06/04 02:12:17;;;;;;;9.90;6.30;;;10.20;99.90;;;;;;5035122;28;20037;-72
2023/06/04 02:14:44;;;;;;;12.00;6.38;;;10.20;99.90;;;;;;5046818;28;20394;-70
2023/06/04 02:17:16;;;;;;;13.98;6.72;;;10.20;99.90;;;;;;5006647;28;20044;-74
2023/06/04 02:19:49;;;;;;;11.40;6.00;;;10.20;99.90;;;;;;5024789;28;20144;-73
2023/06/04 02:22:19;;;;;;;11.02;6.80;;;10.20;99.90;;;;;;5027216;28;20053;-72
2023/06/04 02:24:48;;;;;;;12.90;7.25;;;10.20;99.90;;;;;;5016201;28;20059;-73
2023/06/04 02:27:14;;;;;;;11.03;7.00;;;10.20;99.90;;;;;;5024838;28;20041;-75
2023/06/04 02:29:40;;;;;;;9.13;7.03;;;10.20;99.90;;;;;;5021903;28;20094;-75
2023/06/04 02:32:06;;;;;;;12.90;7.95;;;10.20;99.90;;;;;;5039828;28;20052;-73
2023/06/04 02:34:33;;;;;;;12.52;7.13;;;10.10;99.90;;;;;;5038892;28;20044;-74
2023/06/04 02:37:00;;;;;;;11.02;7.93;;;10.10;99.90;;;;;;5041528;28;20092;-73
2023/06/04 02:39:26;;;;;;;13.30;7.70;;;10.10;99.90;;;;;;5045875;28;20067;-71
2023/06/04 02:41:52;;;;;;;11.90;7.57;;;10.10;99.90;;;;;;5031350;28;20044;-71
2023/06/04 02:44:17;;;;;;;11.60;7.85;;;10.10;99.90;;;;;;5027923;28;20098;-74
2023/06/04 02:46:44;;;;;;;10.80;6.80;;;10.10;99.90;;;;;;5035910;28;20508;-74
2023/06/04 02:49:13;;;;;;;16.65;8.05;;;10.00;99.90;;;;;;5040128;28;20047;-75
2023/06/04 02:51:45;;;;;;;15.48;7.63;;;10.00;99.90;;;;;;5025868;28;20116;-74
2023/06/04 02:54:11;;;;;;;11.32;7.78;;;10.00;99.90;;;;;;5042135;28;20048;-74
2023/06/04 02:56:37;;;;;;;13.23;8.07;;;10.00;99.90;;;;;;5030244;28;20063;-74
2023/06/04 02:59:03;;;;;;;12.10;7.88;;;10.00;99.90;;;;;;5032691;28;20544;-74
2023/06/04 03:01:30;;;;;;;12.73;7.80;;;10.00;99.90;;;;;;5035605;28;20044;-74
2023/06/04 03:04:01;;;;;;;14.00;7.45;;;10.00;99.90;;;;;;5035921;28;20416;-74
2023/06/04 03:06:26;;;;;;;11.55;7.95;;;10.00;99.90;;;;;;5041363;28;20053;-74
2023/06/04 03:08:52;;;;;;;12.80;8.32;;;9.90;99.90;;;;;;5062398;28;20543;-74
2023/06/04 03:11:21;;;;;;;11.90;8.05;;;9.90;99.90;;;;;;5064685;28;20082;-71
2023/06/04 03:13:48;;;;;;;16.33;8.45;;;9.80;99.90;;;;;;5042618;28;20135;-71
2023/06/04 03:16:14;;;;;;;12.68;9.48;;;9.80;99.90;;;;;;5059853;28;20062;-71
2023/06/04 03:18:42;;;;;;;16.92;10.63;;;9.90;99.90;;;;;;5054558;28;20131;-71
2023/06/04 03:21:08;;;;;;;14.90;9.93;;;9.80;99.90;;;;;;5071109;28;20356;-71
2023/06/04 03:23:35;;;;;;;16.63;9.30;;;9.80;99.90;;;;;;5053265;28;20050;-71
2023/06/04 03:26:05;;;;;;;16.60;9.27;;;9.80;99.90;;;;;;5079352;28;20055;-71
2023/06/04 03:28:32;;;;;;;13.10;8.80;;;9.80;99.90;;;;;;5047227;28;20098;-71
2023/06/04 03:30:58;;;;;;;13.20;9.57;;;9.80;99.90;;;;;;5054855;28;20046;-71
2023/06/04 03:33:24;;;;;;;18.02;9.52;;;9.70;99.90;;;;;;5053452;28;20052;-71
2023/06/04 03:35:53;;;;;;;15.07;10.80;;;9.70;99.90;;;;;;5052311;28;20124;-71
2023/06/04 03:38:19;;;;;;;14.75;10.50;;;9.70;99.90;;;;;;5065808;28;20054;-74
2023/06/04 03:40:45;;;;;;;16.52;9.68;;;9.70;99.90;;;;;;5032418;28;20467;-75
2023/06/04 03:43:14;;;;;;;14.20;10.60;;;9.70;99.90;;;;;;5049432;28;20135;-74
2023/06/04 03:45:41;;;;;;;17.00;11.95;;;9.70;99.90;;;;;;5063039;28;20054;-74
2023/06/04 03:48:07;;;;;;;18.45;13.23;;;9.70;99.90;;;;;;5075209;28;21039;-74
2023/06/04 03:50:33;;;;;;;15.45;11.98;;;9.70;99.90;;;;;;5067368;28;20047;-74
2023/06/04 03:52:58;;;;;;;15.38;12.27;;;9.80;99.90;;;;;;5048912;28;20596;-74
2023/06/04 03:55:24;;;;;;;20.77;12.75;;;9.80;99.90;;;;;;5057642;28;20040;-71
2023/06/04 03:57:50;;;;;;;17.00;11.80;;;9.80;99.90;;;;;;5058085;28;20063;-71
2023/06/04 04:00:16;;;;;;;17.65;12.00;;;9.80;99.90;;;;;;5059554;28;20423;-71
2023/06/04 04:02:42;;;;;;;18.13;12.50;;;9.80;99.90;;;;;;5061869;28;20044;-71
2023/06/04 04:05:09;;;;;;;19.30;11.40;;;9.90;99.90;;;;;;5048103;28;20452;-71
2023/06/04 04:07:35;;;;;;;18.98;11.77;;;9.90;99.90;;;;;;5040094;28;20616;-71
2023/06/04 04:10:01;;;;;;;13.75;11.60;;;9.90;99.90;;;;;;5023132;28;20048;-71
2023/06/04 04:12:27;;;;;;;17.23;11.63;;;9.90;99.90;;;;;;5026778;28;20607;-71
2023/06/04 04:14:53;;;;;;;16.88;12.43;;;10.00;99.90;;;;;;5022851;28;20123;-71
2023/06/04 04:17:18;;;;;;;19.13;12.10;;;10.00;99.90;;;;;;5021936;28;20428;-71
2023/06/04 04:19:47;;;;;;;19.00;12.90;;;10.00;99.90;;;;;;5021698;28;20405;-71
2023/06/04 04:22:17;;;;;;;19.25;12.38;;;10.00;99.90;;;;;;5038534;28;20059;-72
2023/06/04 04:24:43;;;;;;;17.15;12.18;;;10.00;99.90;;;;;;5034204;28;20124;-71
2023/06/04 04:27:12;;;;;;;20.52;12.18;;;10.10;99.90;;;;;;5009167;28;20228;-71
2023/06/04 04:29:38;;;;;;;17.30;12.20;;;10.10;99.90;;;;;;5028629;28;20036;-72
2023/06/04 04:32:10;;;;;;;21.35;12.95;;;10.10;99.90;;;;;;5044296;28;20039;-71
2023/06/04 04:34:51;;;;;;;19.63;12.63;;;10.10;99.90;;;;;;5043120;28;20099;-71
2023/06/04 04:37:20;;;;;;;16.25;11.75;;;10.10;99.90;;;;;;5043548;28;20060;-72
2023/06/04 04:39:46;;;;;;;18.92;11.90;;;10.20;99.90;;;;;;5044087;28;20139;-71
2023/06/04 04:42:12;;;;;;;20.35;12.23;;;10.20;99.90;;;;;;5028688;28;20139;-72
2023/06/04 04:44:38;;;;;;;19.23;12.52;;;10.20;99.90;;;;;;5041451;28;20493;-74
2023/06/04 04:47:04;;;;;;;14.20;10.95;;;10.20;99.90;;;;;;5033080;28;20115;-74
2023/06/04 04:49:30;;;;;;;17.30;11.65;;;10.30;99.90;;;;;;5043498;28;20574;-75
2023/06/04 04:51:56;;;;;;;17.15;12.35;;;10.30;99.90;;;;;;5049053;28;20037;-74
2023/06/04 04:54:22;;;;;;;16.92;11.13;;;10.30;99.90;;;;;;5008608;28;20045;-73
2023/06/04 04:56:48;;;;;;;16.83;10.55;;;10.40;99.90;;;;;;5026108;28;20473;-73
2023/06/04 04:59:13;;;;;;;16.40;10.77;;;10.40;99.90;;;;;;4993140;28;20415;-73
2023/06/04 05:01:39;;;;;;;18.23;11.40;;;10.50;99.90;;;;;;5025951;28;20041;-73
2023/06/04 05:04:05;;;;;;;17.52;12.50;;;10.50;99.90;;;;;;5049041;28;20037;-73
2023/06/04 05:06:31;;;;;;;16.38;11.57;;;10.60;99.90;;;;;;5028963;28;20041;-74
2023/06/04 05:08:56;;;;;;;18.63;11.18;;;10.60;99.90;;;;;;5027506;28;20527;-72
2023/06/04 05:11:22;;;;;;;19.00;11.25;;;10.70;99.90;;;;;;5048239;28;20041;-73
2023/06/04 05:13:48;;;;;;;15.85;11.48;;;10.80;99.90;;;;;;5029269;28;20052;-69
2023/06/04 05:16:14;;;;;;;14.32;11.68;;;10.80;99.90;;;;;;5014027;28;20056;-70
2023/06/04 05:18:41;;;;;;;15.85;12.45;;;10.80;99.90;;;;;;5044989;28;20105;-70
2023/06/04 05:21:07;;;;;;;16.27;13.40;;;10.90;99.90;;;;;;5013370;28;20045;-70
2023/06/04 05:23:37;;;;;;;15.95;14.02;;;11.00;99.90;;;;;;5041633;28;20033;-70
2023/06/04 05:26:04;;;;;;;18.13;13.37;;;11.10;99.90;;;;;;5030496;28;20041;-69
2023/06/04 05:28:33;;;;;;;20.95;13.75;;;11.10;99.90;;;;;;5027718;28;20575;-71
2023/06/04 05:30:59;;;;;;;16.42;13.65;;;11.20;99.90;;;;;;5030391;28;20063;-71
2023/06/04 05:33:30;;;;;;;22.38;14.23;;;11.30;99.90;;;;;;5027658;28;20048;-71
2023/06/04 05:35:57;;;;;;;19.30;14.20;;;11.40;99.90;;;;;;5043085;28;20047;-71
2023/06/04 05:38:27;;;;;;;20.50;14.40;;;11.40;99.90;;;;;;5009931;28;20044;-71
2023/06/04 05:40:56;;;;;;;18.08;13.15;;;11.50;99.90;;;;;;5043536;28;20552;-71
2023/06/04 05:43:22;;;;;;;17.20;13.48;;;11.60;99.90;;;;;;5011856;28;20489;-71
2023/06/04 05:45:48;;;;;;;19.63;13.65;;;11.60;99.90;;;;;;5044927;28;20040;-71
2023/06/04 05:48:14;;;;;;;14.23;11.40;;;11.70;99.90;;;;;;5041833;28;20049;-71
2023/06/04 05:50:40;;;;;;;15.68;12.45;;;11.80;99.90;;;;;;5029324;28;20048;-71
2023/06/04 05:53:06;;;;;;;20.08;12.55;;;11.80;99.90;;;;;;5047762;28;20506;-74
2023/06/04 05:55:32;;;;;;;14.50;11.80;;;11.90;99.90;;;;;;4994297;28;20041;-74
2023/06/04 05:57:58;;;;;;;17.02;11.23;;;12.00;99.90;;;;;;4993089;28;20114;-74
2023/06/04 06:00:24;;;;;;;17.27;11.32;;;12.10;99.90;;;;;;5025961;28;20049;-74
2023/06/04 06:02:52;;;;;;;15.13;11.02;;;12.20;99.90;;;;;;5035656;28;20400;-74
2023/06/04 06:05:19;;;;;;;15.18;10.77;;;12.30;99.90;;;;;;5028754;28;20047;-71
2023/06/04 06:07:46;;;;;;;16.10;10.70;;;12.40;99.90;;;;;;4994245;28;20487;-71
2023/06/04 06:10:15;;;;;;;14.52;10.40;;;12.50;99.90;;;;;;5025481;28;20040;-71
2023/06/04 06:12:41;;;;;;;13.33;9.00;;;12.50;99.90;;;;;;4995029;28;20115;-71
2023/06/04 06:15:08;;;;;;;14.88;9.10;;;12.60;99.90;;;;;;5013839;28;20652;-71
2023/06/04 06:17:35;;;;;;;13.85;9.00;;;12.70;99.90;;;;;;5029476;28;20037;-71
2023/06/04 06:20:03;;;;;;;11.30;8.15;;;12.80;99.90;;;;;;5011008;28;20400;-71
2023/06/04 06:22:29;;;;;;;11.88;8.40;;;12.80;99.90;;;;;;4997656;28;20044;-72
2023/06/04 06:24:56;;;;;;;14.52;7.28;;;12.90;99.90;;;;;;5026313;28;20051;-74
2023/06/04 06:27:21;;;;;;;14.40;8.20;;;12.90;99.90;;;;;;5042039;28;20057;-71
2023/06/04 06:29:47;;;;;;;14.55;7.88;;;13.00;99.90;;;;;;5028461;28;20118;-71
2023/06/04 06:32:13;;;;;;;11.77;7.45;;;13.00;99.90;;;;;;5028607;28;20049;-72
2023/06/04 06:34:39;;;;;;;14.48;7.97;;;13.10;99.90;;;;;;5039645;28;20036;-72
2023/06/04 06:37:06;;;;;;;15.63;8.55;;;13.10;99.90;;;;;;5010819;28;20064;-71
2023/06/04 06:39:32;;;;;;;12.65;7.40;;;13.20;99.90;;;;;;5044719;28;20123;-71
2023/06/04 06:41:58;;;;;;;13.25;7.13;;;13.30;99.90;;;;;;5040473;28;20174;-71
2023/06/04 06:44:24;;;;;;;15.15;7.40;;;13.40;99.90;;;;;;5025058;28;20378;-71
2023/06/04 06:46:50;;;;;;;11.45;6.65;;;13.50;99.90;;;;;;5026075;28;20247;-70
2023/06/04 06:49:16;;;;;;;13.02;6.68;;;13.60;99.90;;;;;;5025411;28;20051;-70
2023/06/04 06:51:42;;;;;;;12.07;6.82;;;13.70;99.90;;;;;;5029677;28;20527;-70
2023/06/04 06:54:14;;;;;;;11.63;6.50;;;13.80;99.90;;;;;;5026683;28;20055;-70
2023/06/04 06:56:39;;;;;;;12.43;7.22;;;13.90;99.90;;;;;;5038884;28;20060;-70
2023/06/04 06:59:05;;;;;;;12.23;6.78;;;14.00;99.90;;;;;;5010478;28;20033;-73
2023/06/04 07:01:33;;;;;;;13.98;7.68;;;14.10;99.90;;;;;;5042311;28;20229;-70
2023/06/04 07:03:59;;;;;;;9.82;6.03;;;14.20;99.90;;;;;;5039757;28;20047;-70
2023/06/04 07:06:25;;;;;;;13.65;6.05;;;14.30;99.90;;;;;;5022933;28;20050;-70
2023/06/04 07:08:52;;;;;;;12.15;6.45;;;14.30;99.90;;;;;;5029343;28;20128;-74
2023/06/04 07:11:21;;;;;;;10.70;5.97;;;14.40;99.90;;;;;;5034916;28;20045;-73
2023/06/04 07:13:47;;;;;;;13.13;6.03;;;14.50;99.90;;;;;;5020253;28;20481;-73
2023/06/04 07:16:13;;;;;;;8.32;4.65;;;14.70;99.90;;;;;;5014503;28;20044;-73
2023/06/04 07:18:39;;;;;;;9.90;4.20;;;14.80;99.90;;;;;;5033858;28;20045;-73
2023/06/04 07:21:05;;;;;;;9.85;4.70;;;14.80;99.90;;;;;;5017745;28;20300;-72
2023/06/04 07:23:31;;;;;;;10.60;5.07;;;14.90;99.90;;;;;;5033951;28;20136;-73
2023/06/04 07:25:56;;;;;;;10.15;4.85;;;14.90;99.90;;;;;;5027601;28;20553;-73
2023/06/04 07:28:22;;;;;;;9.27;3.95;;;15.00;99.90;;;;;;5016988;28;20501;-73
2023/06/04 07:30:48;;;;;;;11.13;4.75;;;15.10;99.90;;;;;;5045143;28;20063;-73
2023/06/04 07:33:14;;;;;;;10.15;4.45;;;15.20;99.90;;;;;;5041255;28;20056;-73
2023/06/04 07:35:40;;;;;;;11.63;3.67;;;15.30;99.90;;;;;;5028113;28;20137;-72
2023/06/04 07:38:06;;;;;;;9.70;4.25;;;15.40;99.90;;;;;;5027235;28;20398;-73
2023/06/04 07:40:31;;;;;;;11.35;4.05;;;15.50;99.90;;;;;;5050560;28;20039;-73
2023/06/04 07:42:57;;;;;;;10.02;3.80;;;15.60;99.90;;;;;;5043380;28;20044;-71
2023/06/04 07:45:23;;;;;;;10.25;3.15;;;15.70;99.90;;;;;;5023594;28;20082;-71
2023/06/04 07:47:49;;;;;;;9.23;3.42;;;15.80;99.90;;;;;;5024888;28;20041;-71
2023/06/04 07:50:15;;;;;;;10.23;3.97;;;15.90;99.90;;;;;;5036071;28;20484;-71
2023/06/04 07:52:40;;;;;;;11.18;4.20;;;16.00;99.90;;;;;;5021870;28;20619;-71
2023/06/04 07:55:08;;;;;;;8.70;3.28;;;16.10;99.90;;;;;;5026074;28;20043;-71
2023/06/04 07:57:34;;;;;;;10.45;3.78;;;16.20;99.90;;;;;;5039649;28;20397;-71
2023/06/04 08:00:01;;;;;;;10.38;3.13;;;16.20;99.90;;;;;;5016731;28;20052;-71
2023/06/04 08:02:27;;;;;;;9.20;3.15;;;16.40;99.90;;;;;;5041547;28;20048;-72
2023/06/04 08:04:53;;;;;;;6.72;2.88;;;16.50;99.90;;;;;;5025101;28;20414;-71
2023/06/04 08:07:18;;;;;;;11.07;3.72;;;16.70;99.90;;;;;;5006828;28;20647;-71
2023/06/04 08:09:45;;;;;;;9.00;2.97;;;16.90;99.90;;;;;;5011281;28;20044;-71
2023/06/04 08:12:15;;;;;;;9.18;3.08;;;17.00;99.90;;;;;;5044936;28;20041;-71
2023/06/04 08:14:41;;;;;;;10.73;3.38;;;17.10;99.90;;;;;;5044596;28;20068;-71
2023/06/04 08:17:07;;;;;;;9.10;3.20;;;17.20;99.90;;;;;;5013354;28;20072;-71
2023/06/04 08:19:33;;;;;;;8.00;2.97;;;17.30;99.90;;;;;;5043965;28;20456;-73
2023/06/04 08:22:00;;;;;;;7.30;3.08;;;17.40;99.90;;;;;;5011033;28;20063;-73
2023/06/04 08:24:25;;;;;;;8.32;2.80;;;17.40;99.90;;;;;;5048232;28;20032;-71
2023/06/04 08:26:51;;;;;;;7.53;2.67;;;17.60;99.90;;;;;;5046650;28;20209;-74
2023/06/04 08:29:17;;;;;;;9.45;2.45;;;17.70;99.90;;;;;;5046314;28;20048;-73
2023/06/04 08:31:43;;;;;;;8.95;2.45;;;17.70;99.90;;;;;;5032152;28;20062;-73
2023/06/04 08:34:09;;;;;;;8.25;2.60;;;17.60;99.90;;;;;;5046222;28;20267;-73
2023/06/04 08:36:34;;;;;;;6.88;2.40;;;17.60;99.90;;;;;;5033797;28;20036;-72
2023/06/04 08:39:01;;;;;;;7.68;2.50;;;17.70;99.90;;;;;;5062209;28;20052;-73
2023/06/04 08:41:37;;;;;;;9.43;3.00;;;17.80;99.90;;;;;;5031486;28;20537;-72
2023/06/04 08:44:06;;;;;;;6.90;2.22;;;17.80;99.90;;;;;;5022456;28;20504;-74
2023/06/04 08:46:40;;;;;;;8.27;2.00;;;17.90;99.90;;;;;;5043171;28;20060;-74
2023/06/04 08:49:07;;;;;;;6.45;2.08;;;17.90;99.90;;;;;;5047053;28;20396;-73
2023/06/04 08:51:36;;;;;;;7.45;2.63;;;18.00;99.90;;;;;;5046430;28;21303;-71
2023/06/04 08:54:07;;;;;;;6.25;2.10;;;18.10;99.90;;;;;;5044252;28;20081;-71
2023/06/04 08:56:36;;;;;;;7.55;2.20;;;18.10;99.90;;;;;;5040797;28;20053;-71
2023/06/04 08:59:07;;;;;;;5.53;2.10;;;18.30;99.90;;;;;;5046591;28;20098;-72
2023/06/04 09:01:34;;;;;;;5.60;1.77;;;18.40;99.90;;;;;;5028944;28;20045;-71
2023/06/04 09:04:04;;;;;;;4.80;1.63;;;18.60;99.00;;;;;;5060991;28;20539;-71
2023/06/04 09:06:32;;;;;;;5.72;1.92;;;18.70;97.80;;;;;;5050142;28;20524;-71
2023/06/04 09:08:59;;;;;;;4.60;1.73;;;18.80;96.00;;;;;;5040443;28;20064;-72
2023/06/04 09:11:54;;;;;;;9.20;2.30;;;18.80;94.90;;;;;;5025423;28;20512;-71
2023/06/04 09:14:20;;;;;;;7.15;2.33;;;18.70;94.50;;;;;;5028772;28;20052;-71
2023/06/04 09:16:48;;;;;;;6.38;1.90;;;18.70;93.40;;;;;;5044179;28;20458;-71
2023/06/04 09:19:14;;;;;;;4.53;1.52;;;18.80;93.40;;;;;;5031468;28;20048;-71
2023/06/04 09:22:06;;;;;;;4.25;1.40;;;18.90;92.60;;;;;;5051165;28;20447;-70
2023/06/04 09:24:41;;;;;;;4.55;1.70;;;19.00;93.10;;;;;;5043349;28;20067;-71
2023/06/04 09:27:14;;;;;;;5.22;1.88;;;19.00;89.00;;;;;;5033854;28;20080;-71
2023/06/04 09:29:55;;;;;;;5.57;1.80;;;19.10;88.10;;;;;;5028663;28;20051;-71
2023/06/04 09:32:30;;;;;;;3.50;1.63;;;19.10;86.70;;;;;;5036101;28;20547;-70
2023/06/04 09:35:12;;;;;;;3.60;1.15;;;19.10;84.40;;;;;;5025626;28;20123;-71
2023/06/04 09:37:39;;;;;;;5.00;2.00;;;19.20;83.80;;;;;;5053841;28;20040;-71
2023/06/04 09:40:06;;;;;;;3.60;1.65;;;19.30;83.70;;;;;;5045110;28;20576;-71
2023/06/04 09:42:42;;;;;;;4.60;1.50;;;19.40;81.50;;;;;;5035382;28;20182;-71
2023/06/04 09:45:09;;;;;;;4.35;1.45;;;19.50;81.00;;;;;;5046763;28;20056;-71
2023/06/04 09:47:44;;;;;;;4.38;1.60;;;19.60;80.20;;;;;;5015035;28;20051;-71
2023/06/04 09:50:13;;;;;;;3.03;1.20;;;19.80;77.40;;;;;;5030983;28;20056;-71
2023/06/04 09:52:39;;;;;;;3.22;1.52;;;19.90;75.60;;;;;;5026716;28;20087;-71
2023/06/04 09:55:20;;;;;;;3.28;1.20;;;19.90;70.70;;;;;;5041024;28;20055;-70
2023/06/04 09:57:50;;;;;;;5.78;1.63;;;19.80;70.80;;;;;;5021806;28;20048;-73
2023/06/04 10:00:28;;;;;;;4.38;1.80;;;19.90;73.90;;;;;;5028882;28;20559;-72
2023/06/04 10:02:58;;;;;;;3.75;1.40;;;20.00;74.70;;;;;;5040022;28;20127;-73
2023/06/04 10:05:25;;;;;;;4.22;1.58;;;20.10;72.00;;;;;;5047784;28;20080;-73
2023/06/04 10:07:52;;;;;;;4.40;1.52;;;20.10;68.40;;;;;;5043209;28;20554;-73
2023/06/04 10:10:25;;;;;;;3.55;1.50;;;20.10;67.70;;;;;;5034742;28;20047;-71
2023/06/04 10:13:03;;;;;;;3.72;1.60;;;20.10;69.40;;;;;;5063392;28;20055;-71
2023/06/04 10:15:32;;;;;;;5.35;1.40;;;20.20;70.00;;;;;;5047966;28;20115;-72
2023/06/04 10:17:58;;;;;;;5.53;1.48;;;20.30;67.90;;;;;;5033459;28;20047;-72
2023/06/04 10:20:24;;;;;;;3.17;1.45;;;20.30;67.40;;;;;;5083135;28;20036;-72
2023/06/04 10:22:50;;;;;;;4.55;1.90;;;20.40;66.90;;;;;;5031088;28;20537;-72
2023/06/04 10:25:18;;;;;;;4.35;2.00;;;20.40;67.50;;;;;;5030091;28;20187;-72
2023/06/04 10:27:45;;;;;;;4.53;1.95;;;20.50;66.70;;;;;;5059875;28;20056;-72
2023/06/04 10:30:14;;;;;;;4.15;1.52;;;20.50;65.70;;;;;;5064458;28;20075;-74
2023/06/04 10:32:40;;;;;;;3.80;1.67;;;20.50;67.10;;;;;;5042318;28;20032;-71
2023/06/04 10:35:10;;;;;;;4.78;1.65;;;20.50;66.40;;;;;;5063489;28;20032;-71
2023/06/04 10:37:36;;;;;;;3.25;1.58;;;20.60;66.20;;;;;;5048612;28;20028;-71
2023/06/04 10:40:04;;;;;;;4.18;1.70;;;20.60;65.50;;;;;;5045821;28;20058;-71
2023/06/04 10:42:39;;;;;;;4.68;1.83;;;20.60;64.10;;;;;;5049595;28;20040;-71
2023/06/04 10:45:05;;;;;;;5.13;1.35;;;20.70;64.50;;;;;;5062800;28;20047;-70
2023/06/04 10:47:33;;;;;;;3.17;1.58;;;20.70;62.90;;;;;;5031030;28;20051;-71
2023/06/04 10:50:13;;;;;;;5.88;1.88;;;20.70;65.40;;;;;;5015557;28;20403;-71
2023/06/04 10:52:51;;;;;;;5.22;1.85;;;20.60;66.60;;;;;;5047995;28;20140;-71
2023/06/04 10:55:17;;;;;;;5.03;1.92;;;20.60;68.70;;;;;;5048733;28;20058;-70
2023/06/04 10:57:53;;;;;;;5.00;1.80;;;20.70;68.90;;;;;;5044576;28;20531;-71
2023/06/04 11:00:19;;;;;;;5.28;1.73;;;20.70;68.80;;;;;;5030108;28;20060;-70
2023/06/04 11:02:55;;;;;;;6.38;2.10;;;20.80;68.30;;;;;;5047810;28;20109;-70
2023/06/04 11:05:22;;;;;;;5.13;1.92;;;20.80;68.70;;;;;;5061090;28;20083;-71
2023/06/04 11:07:49;;;;;;;3.38;1.52;;;20.90;67.40;;;;;;5044737;28;20547;-70
2023/06/04 11:10:17;;;;;;;4.43;1.80;;;20.80;67.60;;;;;;5059886;28;20054;-70
2023/06/04 11:12:48;;;;;;;4.20;1.70;;;20.80;68.40;;;;;;5048199;28;20039;-70
2023/06/04 11:15:14;;;;;;;5.30;1.83;;;20.90;68.40;;;;;;5047750;28;20051;-71
2023/06/04 11:17:54;;;;;;;4.95;1.75;;;21.00;67.20;;;;;;5044029;28;20051;-71
2023/06/04 11:20:20;;;;;;;4.88;1.90;;;21.10;67.40;;;;;;5059436;28;20242;-70
2023/06/04 11:22:57;;;;;;;3.67;1.60;;;21.20;65.80;;;;;;5063225;28;20036;-72
2023/06/04 11:25:25;;;;;;;5.38;1.80;;;21.30;65.40;;;;;;5047754;28;20040;-70
2023/06/04 11:27:53;;;;;;;4.55;1.50;;;21.40;64.40;;;;;;5033814;28;20040;-70
2023/06/04 11:30:20;;;;;;;3.75;1.60;;;21.40;66.00;;;;;;5061377;28;20036;-70
2023/06/04 11:32:46;;;;;;;3.10;1.73;;;21.50;65.40;;;;;;5031624;28;20043;-71
2023/06/04 11:35:13;;;;;;;4.38;1.63;;;21.50;65.40;;;;;;5058884;28;20052;-72
2023/06/04 11:37:40;;;;;;;6.55;1.70;;;21.50;63.90;;;;;;5016437;28;20101;-73
2023/06/04 11:40:17;;;;;;;4.40;1.70;;;21.50;64.20;;;;;;5047062;28;20503;-73
2023/06/04 11:42:43;;;;;;;3.40;1.55;;;21.50;63.80;;;;;;5064466;28;20040;-70
2023/06/04 11:45:12;;;;;;;4.80;1.80;;;21.40;64.00;;;;;;5026225;28;20039;-70
2023/06/04 11:47:38;;;;;;;4.40;1.50;;;21.30;66.10;;;;;;5059790;28;20032;-71
2023/06/04 11:50:04;;;;;;;5.35;1.70;;;21.50;67.80;;;;;;5031389;28;20036;-70
2023/06/04 11:52:30;;;;;;;4.68;1.75;;;21.60;67.20;;;;;;5047365;28;20040;-70
2023/06/04 11:54:56;;;;;;;3.80;1.85;;;21.70;65.00;;;;;;5061731;28;20050;-70
2023/06/04 11:57:22;;;;;;;5.22;1.63;;;21.80;64.80;;;;;;5040992;28;20044;-72
2023/06/04 11:59:48;;;;;;;6.38;2.17;;;21.90;64.70;;;;;;5029409;28;20071;-72
2023/06/04 12:02:13;;;;;;;4.53;1.60;;;22.00;65.70;;;;;;5043726;28;20129;-71
2023/06/04 12:04:39;;;;;;;5.07;1.85;;;22.10;63.90;;;;;;5044712;28;20248;-72
2023/06/04 12:07:06;;;;;;;4.90;1.80;;;22.00;64.10;;;;;;5060457;28;20061;-71
2023/06/04 12:09:38;;;;;;;5.43;1.80;;;22.00;64.10;;;;;;5012231;28;20051;-71
2023/06/04 12:12:05;;;;;;;7.22;1.98;;;22.00;65.60;;;;;;5043400;28;20090;-70
2023/06/04 12:14:31;;;;;;;4.95;2.05;;;22.10;65.60;;;;;;5008895;28;20040;-70
2023/06/04 12:16:59;;;;;;;3.78;1.80;;;22.20;64.60;;;;;;5023787;28;20113;-70
2023/06/04 12:19:26;;;;;;;4.50;2.05;;;22.20;63.70;;;;;;5028786;28;20501;-71
2023/06/04 12:22:01;;;;;;;3.60;1.50;;;22.10;63.30;;;;;;5024581;28;20037;-70
2023/06/04 12:24:27;;;;;;;4.00;1.67;;;22.00;63.20;;;;;;5028028;28;20049;-69
2023/06/04 12:27:06;;;;;;;3.75;1.77;;;22.00;62.90;;;;;;5038326;28;20412;-72
2023/06/04 12:29:32;;;;;;;4.88;2.10;;;21.80;62.60;;;;;;5045489;28;20048;-72
2023/06/04 12:32:07;;;;;;;6.18;2.20;;;21.70;64.90;;;;;;5027240;28;20505;-72
2023/06/04 12:34:37;;;;;;;4.75;1.90;;;21.90;65.20;;;;;;5041670;28;20040;-73
2023/06/04 12:37:03;;;;;;;5.88;2.40;;;21.90;64.40;;;;;;5042207;28;20151;-72
2023/06/04 12:39:29;;;;;;;4.03;2.00;;;21.90;64.30;;;;;;5045629;28;20127;-73
2023/06/04 12:41:55;;;;;;;7.13;1.83;;;21.90;63.90;;;;;;5025282;28;20100;-73
2023/06/04 12:44:21;;;;;;;5.93;2.10;;;21.90;63.70;;;;;;5034428;28;20076;-73